Terminal Aerodrome Forecast
Issued by NWS

Home | Current Version | Previous Version | Text Only | Print | Product List | Glossary On
Versions: 1 2 3 4 5 6 7 8 9 10 11 12 13 14 15 16 17
000
FTUS44 KBMX 030500
TAFMGM
TAF
KMGM 030531Z 0306/0406 VRB04KT P6SM BKN150
     FM030700 VRB03KT P6SM VCSH SCT040 BKN100
     FM031000 VRB03KT 5SM BR SCT040 BKN100
     FM031400 VRB05KT P6SM BKN025
     FM031700 VRB05KT P6SM VCTS BKN050CB
     FM040000 VRB03KT P6SM BKN150=

USA.gov is the U.S. government's official web portal to all federal, state and local government web resources and services.